Time;durP1;ratioP1;P1;durP2;ratioP2;P2;SDS_P1;SDS_P2;PMS_P1;PMS_P2;Temp;Humidity;BMP_temperature;BMP_pressure;BME280_temperature;BME280_humidity;BME280_pressure;Samples;Min_cycle;Max_cycle;Signal;HPM_P1;HPM_P2
2022/10/18 00:00:04;;;;;;;3.30;3.10;;;15.60;99.90;;;;;;494100;240;29262;-70
2022/10/18 00:02:06;;;;;;;3.33;2.90;;;15.60;99.90;;;;;;494102;240;29295;-70
2022/10/18 00:04:07;;;;;;;3.20;2.90;;;15.70;99.90;;;;;;494105;240;28409;-70
2022/10/18 00:06:08;;;;;;;3.57;3.27;;;15.70;99.90;;;;;;494069;240;28421;-71
2022/10/18 00:08:09;;;;;;;2.80;2.60;;;15.70;99.90;;;;;;494104;240;28812;-69
2022/10/18 00:10:11;;;;;;;3.00;2.80;;;15.60;99.90;;;;;;494095;240;28404;-70
2022/10/18 00:12:12;;;;;;;2.70;2.50;;;15.60;99.90;;;;;;494096;240;28450;-71
2022/10/18 00:14:13;;;;;;;3.23;2.93;;;15.60;99.90;;;;;;494102;240;28531;-69
2022/10/18 00:16:14;;;;;;;3.07;2.80;;;15.50;99.90;;;;;;494062;240;28751;-70
2022/10/18 00:18:16;;;;;;;3.00;2.80;;;15.50;99.90;;;;;;494086;240;28454;-71
2022/10/18 00:20:17;;;;;;;3.23;3.00;;;15.50;99.90;;;;;;494097;240;28725;-70
2022/10/18 00:22:18;;;;;;;2.90;2.70;;;15.50;99.90;;;;;;494087;240;28898;-70
2022/10/18 00:24:19;;;;;;;3.33;3.03;;;15.50;99.90;;;;;;494089;240;29212;-69
2022/10/18 00:26:21;;;;;;;2.87;2.67;;;15.40;99.90;;;;;;494066;240;29696;-70
2022/10/18 00:28:22;;;;;;;3.00;2.80;;;15.40;99.90;;;;;;494094;240;28802;-69
2022/10/18 00:30:23;;;;;;;4.50;2.57;;;15.40;99.90;;;;;;494102;240;28824;-70
2022/10/18 00:32:24;;;;;;;4.23;3.13;;;15.40;99.90;;;;;;494102;240;28305;-70
2022/10/18 00:34:26;;;;;;;4.37;2.87;;;15.30;99.90;;;;;;494104;240;28422;-70
2022/10/18 00:36:27;;;;;;;3.53;2.90;;;15.30;99.90;;;;;;494057;240;28724;-70
2022/10/18 00:38:28;;;;;;;2.87;2.60;;;15.30;99.90;;;;;;494081;240;28707;-69
2022/10/18 00:40:29;;;;;;;3.30;2.90;;;15.30;99.90;;;;;;494066;240;28483;-69
2022/10/18 00:42:31;;;;;;;2.90;2.70;;;15.30;99.90;;;;;;494073;240;28389;-71
2022/10/18 00:44:32;;;;;;;4.87;3.00;;;15.30;99.90;;;;;;494100;240;28421;-69
2022/10/18 00:46:33;;;;;;;3.23;2.83;;;15.30;99.90;;;;;;494049;240;28902;-70
2022/10/18 00:48:34;;;;;;;3.80;2.93;;;15.40;99.90;;;;;;494092;240;29264;-71
2022/10/18 00:50:36;;;;;;;3.47;3.17;;;15.40;99.90;;;;;;494101;240;28857;-70
2022/10/18 00:52:37;;;;;;;4.30;3.00;;;15.40;99.90;;;;;;494082;240;28423;-71
2022/10/18 00:54:38;;;;;;;4.43;3.30;;;15.30;99.90;;;;;;494094;240;28411;-69
2022/10/18 00:56:39;;;;;;;4.03;3.73;;;15.30;99.90;;;;;;494063;240;28515;-70
2022/10/18 00:58:41;;;;;;;3.40;3.13;;;15.30;99.90;;;;;;494088;240;28410;-72
2022/10/18 01:00:42;;;;;;;3.30;3.10;;;15.30;99.90;;;;;;494089;240;28529;-71
2022/10/18 01:02:43;;;;;;;3.60;3.30;;;15.40;99.90;;;;;;494093;240;28525;-69
2022/10/18 01:04:44;;;;;;;3.47;3.17;;;15.40;99.90;;;;;;494087;240;28720;-69
2022/10/18 01:06:46;;;;;;;4.60;3.40;;;15.30;99.90;;;;;;494040;240;28713;-70
2022/10/18 01:08:47;;;;;;;2.97;2.77;;;15.30;99.90;;;;;;494088;240;28419;-71
2022/10/18 01:10:48;;;;;;;3.60;3.30;;;15.30;99.90;;;;;;494089;240;28990;-70
2022/10/18 01:12:50;;;;;;;4.13;3.40;;;15.30;99.90;;;;;;494098;240;28968;-71
2022/10/18 01:14:51;;;;;;;3.60;3.30;;;15.30;99.90;;;;;;494088;240;28662;-69
2022/10/18 01:16:52;;;;;;;6.13;3.40;;;15.30;99.90;;;;;;494038;240;28740;-70
2022/10/18 01:18:53;;;;;;;3.77;3.43;;;15.30;99.90;;;;;;494095;240;28379;-72
2022/10/18 01:20:55;;;;;;;7.30;3.30;;;15.30;99.90;;;;;;494089;240;28492;-70
2022/10/18 01:22:56;;;;;;;3.83;3.50;;;15.40;99.90;;;;;;494097;240;28393;-69
2022/10/18 01:24:57;;;;;;;4.57;3.40;;;15.40;99.90;;;;;;494095;240;28415;-69
2022/10/18 01:26:58;;;;;;;4.17;2.87;;;15.40;99.90;;;;;;494058;240;28300;-71
2022/10/18 01:29:00;;;;;;;3.77;3.47;;;15.40;99.90;;;;;;494095;240;28736;-71
2022/10/18 01:31:01;;;;;;;3.50;2.97;;;15.40;99.90;;;;;;494093;240;28713;-70
2022/10/18 01:33:02;;;;;;;4.00;3.30;;;15.40;99.90;;;;;;494102;240;28318;-70
2022/10/18 01:35:03;;;;;;;3.00;2.80;;;15.30;99.90;;;;;;494111;240;28870;-69
2022/10/18 01:37:05;;;;;;;3.57;3.00;;;15.30;99.90;;;;;;494079;240;29268;-70
2022/10/18 01:39:06;;;;;;;3.63;3.33;;;15.30;99.90;;;;;;494106;240;29275;-72
2022/10/18 01:41:07;;;;;;;4.03;3.33;;;15.30;99.90;;;;;;494124;240;28857;-70
2022/10/18 01:43:08;;;;;;;4.30;3.13;;;15.40;99.90;;;;;;494121;240;28403;-70
2022/10/18 01:45:10;;;;;;;5.27;3.20;;;15.40;99.90;;;;;;494123;240;28903;-69
2022/10/18 01:47:11;;;;;;;3.30;3.00;;;15.40;99.90;;;;;;494072;240;28529;-70
2022/10/18 01:49:12;;;;;;;3.53;3.23;;;15.40;99.90;;;;;;494094;240;28533;-71
2022/10/18 01:51:13;;;;;;;4.13;3.27;;;15.40;99.90;;;;;;494115;240;28532;-70
2022/10/18 01:53:15;;;;;;;3.90;3.50;;;15.40;99.90;;;;;;494107;240;28875;-71
2022/10/18 01:55:16;;;;;;;3.43;3.13;;;15.40;99.90;;;;;;494120;240;28614;-69
2022/10/18 01:57:17;;;;;;;4.57;3.33;;;15.40;99.90;;;;;;494065;240;29292;-70
2022/10/18 01:59:18;;;;;;;5.23;3.37;;;15.40;99.90;;;;;;494103;240;28968;-72
2022/10/18 02:01:20;;;;;;;7.90;3.40;;;15.40;99.90;;;;;;494113;240;29305;-70
2022/10/18 02:03:21;;;;;;;4.17;3.27;;;15.50;99.90;;;;;;494120;240;28965;-70
2022/10/18 02:05:22;;;;;;;3.60;3.30;;;15.50;99.90;;;;;;494116;240;28946;-69
2022/10/18 02:07:23;;;;;;;4.40;3.40;;;15.50;99.90;;;;;;494067;240;28514;-69
2022/10/18 02:09:25;;;;;;;2.97;2.77;;;15.60;99.90;;;;;;494115;240;28535;-72
2022/10/18 02:11:26;;;;;;;6.70;3.77;;;15.60;99.90;;;;;;494122;240;28598;-69
2022/10/18 02:13:27;;;;;;;3.53;3.23;;;15.70;99.90;;;;;;494113;240;28849;-70
2022/10/18 02:15:28;;;;;;;6.63;3.97;;;15.70;99.90;;;;;;494114;240;28918;-69
2022/10/18 02:17:30;;;;;;;4.47;3.40;;;15.70;99.90;;;;;;494081;240;28317;-69
2022/10/18 02:19:31;;;;;;;3.60;3.30;;;15.70;99.90;;;;;;494096;240;28626;-71
2022/10/18 02:21:32;;;;;;;3.37;3.03;;;15.80;99.90;;;;;;494117;240;28557;-69
2022/10/18 02:23:33;;;;;;;4.30;3.90;;;15.80;99.90;;;;;;494106;240;28875;-70
2022/10/18 02:25:35;;;;;;;3.67;3.37;;;15.80;99.90;;;;;;494116;240;29194;-69
2022/10/18 02:27:36;;;;;;;4.47;3.70;;;15.70;99.90;;;;;;494070;240;28989;-70
2022/10/18 02:29:37;;;;;;;4.97;3.37;;;15.70;99.90;;;;;;494118;240;28834;-71
2022/10/18 02:31:38;;;;;;;3.70;3.23;;;15.80;99.90;;;;;;494109;240;28721;-70
2022/10/18 02:33:40;;;;;;;3.87;3.53;;;15.80;99.90;;;;;;494115;240;28732;-71
2022/10/18 02:35:41;;;;;;;6.50;3.40;;;15.80;99.90;;;;;;494116;240;28518;-70
2022/10/18 02:37:42;;;;;;;4.33;3.33;;;15.90;99.90;;;;;;494059;240;28623;-69
2022/10/18 02:39:43;;;;;;;3.73;3.43;;;15.90;99.90;;;;;;494111;240;28432;-71
2022/10/18 02:41:45;;;;;;;3.47;3.27;;;15.90;99.90;;;;;;494112;240;28741;-69
2022/10/18 02:43:46;;;;;;;4.40;3.33;;;16.00;99.90;;;;;;494113;240;28811;-71
2022/10/18 02:45:47;;;;;;;3.40;2.97;;;16.00;99.90;;;;;;494098;240;28736;-69
2022/10/18 02:47:48;;;;;;;3.23;3.03;;;16.00;99.90;;;;;;494072;240;28975;-70
2022/10/18 02:49:50;;;;;;;3.40;3.10;;;16.00;99.90;;;;;;494108;240;29279;-70
2022/10/18 02:51:51;;;;;;;3.43;3.10;;;16.10;99.90;;;;;;494104;240;29217;-70
2022/10/18 02:53:52;;;;;;;4.37;3.60;;;16.10;99.90;;;;;;494093;240;28724;-70
2022/10/18 02:55:53;;;;;;;4.40;3.43;;;16.00;99.90;;;;;;494116;240;28723;-69
2022/10/18 02:57:55;;;;;;;3.57;3.30;;;16.10;99.90;;;;;;494062;240;28717;-70
2022/10/18 02:59:56;;;;;;;3.80;3.30;;;16.20;99.90;;;;;;494112;240;28728;-70
2022/10/18 03:01:57;;;;;;;5.43;3.43;;;16.10;99.90;;;;;;494110;240;28747;-70
2022/10/18 03:03:58;;;;;;;3.70;3.40;;;16.10;99.90;;;;;;494108;240;28815;-69
2022/10/18 03:06:00;;;;;;;4.30;3.50;;;16.10;99.90;;;;;;494101;240;28741;-70
2022/10/18 03:08:01;;;;;;;4.50;2.87;;;16.10;99.90;;;;;;494087;240;28320;-70
2022/10/18 03:10:02;;;;;;;3.37;3.17;;;16.10;99.90;;;;;;494102;240;28744;-70
2022/10/18 03:12:03;;;;;;;3.10;2.90;;;16.10;99.90;;;;;;494106;240;29698;-69
2022/10/18 03:14:05;;;;;;;3.93;3.03;;;16.10;99.90;;;;;;494108;240;29215;-70
2022/10/18 03:16:06;;;;;;;3.40;3.10;;;16.00;99.90;;;;;;494076;240;29245;-74
2022/10/18 03:18:07;;;;;;;5.47;3.30;;;16.00;99.90;;;;;;494094;240;29422;-69
2022/10/18 03:20:08;;;;;;;3.13;2.90;;;16.00;99.90;;;;;;494108;240;28849;-71
2022/10/18 03:22:10;;;;;;;3.00;2.80;;;16.00;99.90;;;;;;494110;240;28825;-69
2022/10/18 03:24:11;;;;;;;2.63;2.47;;;16.10;99.90;;;;;;494112;240;28731;-71
2022/10/18 03:26:12;;;;;;;3.30;3.00;;;16.00;99.90;;;;;;494066;240;28730;-70
2022/10/18 03:28:13;;;;;;;3.00;2.80;;;16.00;99.90;;;;;;494110;240;28821;-71
2022/10/18 03:30:15;;;;;;;4.03;2.77;;;16.00;99.90;;;;;;494107;240;28822;-72
2022/10/18 03:32:16;;;;;;;3.30;3.00;;;16.00;99.90;;;;;;494108;240;28726;-69
2022/10/18 03:34:17;;;;;;;3.20;2.90;;;16.00;99.90;;;;;;494111;240;28728;-71
2022/10/18 03:36:18;;;;;;;5.30;3.17;;;16.00;99.90;;;;;;494064;240;29134;-70
2022/10/18 03:38:20;;;;;;;2.63;2.43;;;15.90;99.90;;;;;;494092;240;29288;-71
2022/10/18 03:40:21;;;;;;;3.13;2.80;;;15.90;99.90;;;;;;494111;240;29168;-70
2022/10/18 03:42:22;;;;;;;3.40;3.10;;;16.00;99.90;;;;;;494102;240;29205;-70
2022/10/18 03:44:23;;;;;;;2.93;2.73;;;16.00;99.90;;;;;;494102;240;28724;-70
2022/10/18 03:46:25;;;;;;;3.53;3.27;;;15.90;99.90;;;;;;494071;240;28723;-69
2022/10/18 03:48:26;;;;;;;2.87;2.67;;;15.90;99.90;;;;;;494102;240;28731;-70
2022/10/18 03:50:27;;;;;;;2.83;2.63;;;15.80;99.90;;;;;;494102;240;28727;-70
2022/10/18 03:52:28;;;;;;;3.57;3.27;;;15.80;99.90;;;;;;494111;240;28809;-70
2022/10/18 03:54:30;;;;;;;3.73;3.40;;;15.90;99.90;;;;;;494098;240;28800;-70
2022/10/18 03:56:31;;;;;;;6.97;3.03;;;15.90;99.90;;;;;;494073;240;28816;-72
2022/10/18 03:58:32;;;;;;;3.50;3.23;;;15.90;99.90;;;;;;494095;240;28743;-70
2022/10/18 04:00:33;;;;;;;3.67;3.37;;;15.80;99.90;;;;;;494099;240;28740;-70
2022/10/18 04:02:35;;;;;;;3.83;3.53;;;15.70;99.90;;;;;;494107;240;28914;-70
2022/10/18 04:04:36;;;;;;;6.47;3.77;;;15.70;99.90;;;;;;494097;240;29202;-70
2022/10/18 04:06:37;;;;;;;4.27;3.30;;;15.70;99.90;;;;;;494064;240;29375;-71
2022/10/18 04:08:38;;;;;;;3.73;3.43;;;15.80;99.90;;;;;;494076;240;28488;-70
2022/10/18 04:10:40;;;;;;;6.00;3.00;;;15.70;99.90;;;;;;494105;240;28788;-70
2022/10/18 04:12:41;;;;;;;3.37;3.07;;;15.70;99.90;;;;;;494098;240;28724;-69
2022/10/18 04:14:42;;;;;;;3.40;3.10;;;15.60;99.90;;;;;;494096;240;28838;-70
2022/10/18 04:16:43;;;;;;;3.00;2.80;;;15.50;99.90;;;;;;494052;240;28732;-72
2022/10/18 04:18:45;;;;;;;4.00;3.70;;;15.50;99.90;;;;;;494079;240;28821;-70
2022/10/18 04:20:46;;;;;;;4.07;3.33;;;15.50;99.90;;;;;;494088;240;28716;-69
2022/10/18 04:22:47;;;;;;;6.40;3.37;;;15.50;99.90;;;;;;494101;240;28315;-69
2022/10/18 04:24:48;;;;;;;3.77;3.47;;;15.40;99.90;;;;;;494107;240;28427;-70
2022/10/18 04:26:50;;;;;;;3.30;3.10;;;15.30;99.90;;;;;;494055;240;29265;-71
2022/10/18 04:28:51;;;;;;;3.33;3.13;;;15.30;99.90;;;;;;494100;240;29185;-71
2022/10/18 04:30:52;;;;;;;3.77;3.47;;;15.20;99.90;;;;;;494105;240;28986;-70
2022/10/18 04:32:53;;;;;;;3.87;3.57;;;15.10;99.90;;;;;;494093;240;28900;-69
2022/10/18 04:34:55;;;;;;;3.77;3.47;;;15.10;99.90;;;;;;494092;240;28259;-69
2022/10/18 04:36:56;;;;;;;3.77;3.47;;;15.10;99.90;;;;;;494057;240;28795;-72
2022/10/18 04:38:57;;;;;;;3.90;3.50;;;15.20;99.90;;;;;;494091;240;28731;-70
2022/10/18 04:40:58;;;;;;;7.77;3.40;;;15.20;99.90;;;;;;494098;240;28390;-71
2022/10/18 04:43:00;;;;;;;5.70;3.40;;;15.30;99.90;;;;;;494093;240;28305;-70
2022/10/18 04:45:01;;;;;;;3.50;3.20;;;15.20;99.90;;;;;;494088;240;28432;-69
2022/10/18 04:47:02;;;;;;;3.70;3.40;;;15.10;99.90;;;;;;494052;240;28429;-71
2022/10/18 04:49:03;;;;;;;3.67;3.37;;;15.00;99.90;;;;;;494094;240;28372;-69
2022/10/18 04:51:05;;;;;;;3.47;3.27;;;15.00;99.90;;;;;;494100;240;28334;-70
2022/10/18 04:53:06;;;;;;;3.87;3.57;;;15.00;99.90;;;;;;494090;237;28934;-69
2022/10/18 04:55:07;;;;;;;7.03;3.30;;;15.00;99.90;;;;;;494100;240;28777;-70
2022/10/18 04:57:08;;;;;;;3.33;3.13;;;15.00;99.90;;;;;;494059;240;28994;-71
2022/10/18 04:59:10;;;;;;;4.03;3.63;;;15.00;99.90;;;;;;494076;240;28290;-69
2022/10/18 05:01:11;;;;;;;3.73;3.43;;;15.10;99.90;;;;;;494102;240;28302;-70
2022/10/18 05:03:12;;;;;;;3.43;3.17;;;15.10;99.90;;;;;;494105;240;28325;-70
2022/10/18 05:05:13;;;;;;;3.50;3.20;;;15.10;99.90;;;;;;494091;240;28365;-69
2022/10/18 05:07:16;;;;;;;3.67;3.37;;;15.00;99.90;;;;;;494054;240;28384;-71
2022/10/18 05:09:16;;;;;;;3.77;3.10;;;15.10;99.90;;;;;;494071;240;28285;-69
2022/10/18 05:11:17;;;;;;;3.53;3.20;;;15.10;99.90;;;;;;494104;240;28081;-71
2022/10/18 05:13:18;;;;;;;3.77;3.37;;;15.10;99.90;;;;;;494092;240;28132;-70
2022/10/18 05:15:20;;;;;;;3.83;3.53;;;15.10;99.90;;;;;;494105;240;28412;-70
2022/10/18 05:17:21;;;;;;;3.50;3.20;;;15.10;99.90;;;;;;494062;240;28900;-70
2022/10/18 05:19:22;;;;;;;3.30;3.00;;;15.10;99.90;;;;;;494099;240;28915;-70
2022/10/18 05:21:24;;;;;;;3.80;3.40;;;15.10;99.90;;;;;;494096;240;28656;-70
2022/10/18 05:23:25;;;;;;;3.87;3.57;;;15.20;99.90;;;;;;494096;240;28388;-69
2022/10/18 05:25:26;;;;;;;3.30;3.00;;;15.20;99.90;;;;;;494093;240;28479;-70
2022/10/18 05:27:27;;;;;;;3.90;3.60;;;15.20;99.90;;;;;;494052;240;28428;-71
2022/10/18 05:29:29;;;;;;;3.73;3.43;;;15.20;99.90;;;;;;494093;240;28381;-71
2022/10/18 05:31:30;;;;;;;5.63;3.60;;;15.20;99.90;;;;;;494103;240;28430;-71
2022/10/18 05:33:31;;;;;;;4.43;3.97;;;15.20;99.90;;;;;;494082;241;28420;-69
2022/10/18 05:35:32;;;;;;;3.30;2.90;;;15.20;99.90;;;;;;494101;240;28525;-69
2022/10/18 05:37:34;;;;;;;4.40;4.00;;;15.20;99.90;;;;;;494049;240;28454;-71
2022/10/18 05:39:35;;;;;;;6.03;4.20;;;15.30;99.90;;;;;;494103;239;28509;-69
2022/10/18 05:41:36;;;;;;;6.67;4.37;;;15.20;99.90;;;;;;494083;240;28897;-70
2022/10/18 05:43:38;;;;;;;5.47;4.10;;;15.20;99.90;;;;;;494093;240;29238;-71
2022/10/18 05:45:39;;;;;;;3.80;3.50;;;15.20;99.90;;;;;;494093;240;28966;-70
2022/10/18 05:47:40;;;;;;;3.80;3.40;;;15.20;99.90;;;;;;494048;240;28873;-70
2022/10/18 05:49:41;;;;;;;5.40;3.70;;;15.20;99.90;;;;;;494084;240;28480;-69
2022/10/18 05:51:42;;;;;;;4.00;3.70;;;15.10;99.90;;;;;;494102;240;28798;-70
2022/10/18 05:53:44;;;;;;;4.70;3.90;;;15.10;99.90;;;;;;494105;240;28173;-70
2022/10/18 05:55:45;;;;;;;4.73;4.00;;;15.10;99.90;;;;;;494087;240;28427;-69
2022/10/18 05:57:46;;;;;;;3.90;3.60;;;15.00;99.90;;;;;;494045;240;28308;-70
2022/10/18 05:59:47;;;;;;;3.53;3.33;;;14.90;99.90;;;;;;494087;240;28409;-70
2022/10/18 06:01:49;;;;;;;5.93;3.70;;;14.90;99.90;;;;;;494084;240;28312;-71
2022/10/18 06:03:50;;;;;;;3.93;3.63;;;15.00;99.90;;;;;;494098;240;28219;-72
2022/10/18 06:05:51;;;;;;;3.97;3.30;;;15.00;99.90;;;;;;494086;240;28399;-70
2022/10/18 06:07:52;;;;;;;3.90;3.60;;;15.00;99.90;;;;;;494056;240;28957;-71
2022/10/18 06:09:54;;;;;;;3.57;3.27;;;15.00;99.90;;;;;;494087;240;28846;-69
2022/10/18 06:11:56;;;;;;;3.27;3.07;;;14.90;99.90;;;;;;494081;240;29188;-72
2022/10/18 06:14:00;;;;;;;3.63;3.43;;;14.90;99.90;;;;;;494045;240;28297;-72
2022/10/18 06:15:57;;;;;;;4.60;3.00;;;14.90;99.90;;;;;;493645;241;28303;-70
2022/10/18 06:17:59;;;;;;;3.40;3.10;;;14.90;99.90;;;;;;494053;240;28474;-70
2022/10/18 06:20:00;;;;;;;5.40;3.60;;;14.90;99.90;;;;;;494081;240;28289;-70
2022/10/18 06:22:01;;;;;;;3.40;3.10;;;15.00;99.90;;;;;;494098;240;28420;-69
2022/10/18 06:24:02;;;;;;;3.90;3.60;;;15.00;99.90;;;;;;494109;240;28420;-72
2022/10/18 06:26:04;;;;;;;5.30;3.53;;;14.90;99.90;;;;;;494080;240;28419;-71
2022/10/18 06:28:05;;;;;;;4.27;3.70;;;15.00;99.90;;;;;;494099;240;28420;-72
2022/10/18 06:30:06;;;;;;;3.80;3.40;;;15.00;99.90;;;;;;494113;240;28916;-70
2022/10/18 06:32:07;;;;;;;4.90;4.10;;;15.00;99.90;;;;;;494103;240;28784;-71
2022/10/18 06:34:09;;;;;;;5.10;3.73;;;15.00;99.90;;;;;;494101;240;28957;-72
2022/10/18 06:36:10;;;;;;;4.37;4.07;;;15.00;99.90;;;;;;494058;240;28782;-71
2022/10/18 06:38:11;;;;;;;4.13;3.77;;;15.10;99.90;;;;;;494117;240;28411;-71
2022/10/18 06:40:12;;;;;;;3.53;3.23;;;15.10;99.90;;;;;;494085;240;28915;-71
2022/10/18 06:42:14;;;;;;;4.50;3.57;;;15.10;99.90;;;;;;494118;240;28404;-70
2022/10/18 06:44:16;;;;;;;3.37;3.07;;;15.10;99.90;;;;;;494101;240;28507;-71
2022/10/18 06:46:16;;;;;;;4.20;3.50;;;15.20;99.90;;;;;;493963;241;28302;-69
2022/10/18 06:48:17;;;;;;;3.70;3.40;;;15.20;99.90;;;;;;494111;240;28412;-70
2022/10/18 06:50:19;;;;;;;6.33;3.27;;;15.20;99.90;;;;;;494115;240;28556;-70
2022/10/18 06:52:24;;;;;;;3.80;3.50;;;15.20;99.90;;;;;;494108;240;28483;-70
2022/10/18 06:54:21;;;;;;;4.73;3.80;;;15.30;99.90;;;;;;493849;240;28736;-72
2022/10/18 06:56:22;;;;;;;3.70;3.27;;;15.30;99.90;;;;;;494059;240;29202;-71
2022/10/18 06:58:24;;;;;;;4.10;3.70;;;15.30;99.90;;;;;;494110;240;29268;-72
2022/10/18 07:00:25;;;;;;;4.20;3.63;;;15.40;99.90;;;;;;494107;240;29363;-71
2022/10/18 07:02:26;;;;;;;3.70;3.40;;;15.40;99.90;;;;;;494115;240;29002;-70
2022/10/18 07:04:28;;;;;;;3.70;3.40;;;15.40;99.90;;;;;;494120;240;28729;-72
2022/10/18 07:06:29;;;;;;;4.20;3.70;;;15.50;99.90;;;;;;494065;240;28899;-70
2022/10/18 07:08:30;;;;;;;4.70;3.77;;;15.50;99.90;;;;;;494108;240;28828;-71
2022/10/18 07:10:31;;;;;;;5.13;3.60;;;15.50;99.90;;;;;;494109;240;28748;-70
2022/10/18 07:12:32;;;;;;;4.97;3.53;;;15.60;99.90;;;;;;494111;240;28827;-70
2022/10/18 07:14:34;;;;;;;3.90;3.60;;;15.60;99.90;;;;;;494113;240;28729;-72
2022/10/18 07:16:35;;;;;;;4.10;3.80;;;15.60;99.90;;;;;;494070;240;28717;-71
2022/10/18 07:18:36;;;;;;;4.97;3.63;;;15.60;99.90;;;;;;494110;240;28800;-70
2022/10/18 07:20:37;;;;;;;4.10;3.80;;;15.70;99.90;;;;;;494097;240;29263;-70
2022/10/18 07:22:39;;;;;;;4.63;4.17;;;15.70;99.90;;;;;;494109;240;29177;-70
2022/10/18 07:24:40;;;;;;;4.57;4.17;;;15.70;99.90;;;;;;494125;240;29183;-71
2022/10/18 07:26:41;;;;;;;4.20;3.90;;;15.80;99.90;;;;;;494066;240;29295;-70
2022/10/18 07:28:42;;;;;;;4.30;3.70;;;15.80;99.90;;;;;;494105;240;28736;-70
2022/10/18 07:30:44;;;;;;;4.57;4.27;;;15.70;99.90;;;;;;494101;240;28830;-70
2022/10/18 07:32:45;;;;;;;4.90;4.50;;;15.70;99.90;;;;;;494100;240;28716;-71
2022/10/18 07:34:46;;;;;;;3.90;3.50;;;15.70;99.90;;;;;;494112;240;28728;-72
2022/10/18 07:36:47;;;;;;;4.30;3.80;;;15.70;99.90;;;;;;494042;240;28838;-70
2022/10/18 07:38:49;;;;;;;3.97;3.60;;;15.70;99.90;;;;;;494076;240;28717;-70
2022/10/18 07:40:50;;;;;;;5.30;3.97;;;15.70;99.90;;;;;;494093;240;28701;-71
2022/10/18 07:42:51;;;;;;;4.00;3.70;;;15.70;99.90;;;;;;494091;240;28787;-69
2022/10/18 07:44:52;;;;;;;3.53;3.23;;;15.90;99.90;;;;;;494098;240;28790;-71
2022/10/18 07:46:54;;;;;;;3.60;3.30;;;15.90;99.90;;;;;;494063;240;29307;-69
2022/10/18 07:48:55;;;;;;;4.27;3.83;;;16.00;99.90;;;;;;494111;240;29273;-70
2022/10/18 07:50:56;;;;;;;3.93;3.53;;;16.10;99.90;;;;;;494107;240;29199;-70
2022/10/18 07:52:57;;;;;;;5.63;3.50;;;16.00;99.90;;;;;;494111;240;28693;-70
2022/10/18 07:54:59;;;;;;;5.57;4.00;;;16.00;99.90;;;;;;494104;240;28776;-71
2022/10/18 07:57:00;;;;;;;4.90;3.53;;;16.00;99.90;;;;;;494056;240;28795;-69
2022/10/18 07:59:01;;;;;;;4.67;4.17;;;16.00;99.90;;;;;;494088;240;28724;-71
2022/10/18 08:01:02;;;;;;;5.17;4.23;;;16.10;99.90;;;;;;494086;240;28815;-70
2022/10/18 08:03:04;;;;;;;4.63;4.20;;;16.10;99.90;;;;;;494103;240;28725;-71
2022/10/18 08:05:05;;;;;;;5.47;5.07;;;16.10;99.90;;;;;;494096;240;28800;-71
2022/10/18 08:07:06;;;;;;;7.00;4.70;;;16.20;99.90;;;;;;494056;240;28786;-69
2022/10/18 08:09:07;;;;;;;5.37;4.67;;;16.30;99.90;;;;;;494107;240;28825;-70
2022/10/18 08:11:09;;;;;;;6.13;4.40;;;16.50;99.90;;;;;;494095;240;29268;-70
2022/10/18 08:13:10;;;;;;;6.27;5.07;;;16.60;99.90;;;;;;494092;240;29246;-71
2022/10/18 08:15:11;;;;;;;5.17;4.40;;;16.80;99.90;;;;;;494099;240;29193;-71
2022/10/18 08:17:12;;;;;;;5.20;4.70;;;16.90;99.90;;;;;;494060;240;28822;-70
2022/10/18 08:19:14;;;;;;;6.20;4.20;;;16.90;99.90;;;;;;494104;240;28701;-71
2022/10/18 08:21:15;;;;;;;5.03;4.63;;;16.80;99.90;;;;;;494091;240;28784;-70
2022/10/18 08:23:16;;;;;;;8.13;4.50;;;16.80;99.90;;;;;;494101;240;28746;-71
2022/10/18 08:25:17;;;;;;;5.27;4.77;;;16.70;99.90;;;;;;494100;240;28809;-71
2022/10/18 08:27:19;;;;;;;5.73;5.07;;;16.60;99.90;;;;;;494045;240;28815;-69
2022/10/18 08:29:20;;;;;;;5.17;4.73;;;16.60;99.90;;;;;;494091;240;28725;-70
2022/10/18 08:31:21;;;;;;;5.57;4.93;;;16.50;99.90;;;;;;494093;240;28834;-72
2022/10/18 08:33:22;;;;;;;6.80;4.97;;;16.60;99.90;;;;;;494093;240;28864;-71
2022/10/18 08:35:24;;;;;;;6.23;5.63;;;16.60;99.90;;;;;;494090;240;29201;-70
2022/10/18 08:37:25;;;;;;;5.30;4.80;;;16.50;99.90;;;;;;494052;240;29222;-70
2022/10/18 08:39:26;;;;;;;6.73;5.40;;;16.60;99.90;;;;;;494099;240;29181;-69
2022/10/18 08:41:28;;;;;;;5.77;5.27;;;16.50;99.90;;;;;;494095;240;29120;-70
2022/10/18 08:43:29;;;;;;;6.20;5.57;;;16.50;99.90;;;;;;494084;240;28719;-70
2022/10/18 08:45:30;;;;;;;5.70;5.20;;;16.50;99.90;;;;;;494086;240;28800;-71
2022/10/18 08:47:31;;;;;;;6.13;5.63;;;16.50;99.90;;;;;;494037;240;28724;-69
2022/10/18 08:49:32;;;;;;;6.00;5.50;;;16.50;99.90;;;;;;494102;240;28726;-70
2022/10/18 08:51:34;;;;;;;5.10;4.60;;;16.60;99.90;;;;;;494101;240;28721;-70
2022/10/18 08:53:35;;;;;;;8.40;5.63;;;16.70;99.90;;;;;;494090;240;28795;-71
2022/10/18 08:55:36;;;;;;;6.37;5.77;;;16.70;99.90;;;;;;494097;240;28733;-71
2022/10/18 08:57:37;;;;;;;5.73;5.00;;;16.70;99.90;;;;;;494055;240;28729;-70
2022/10/18 08:59:39;;;;;;;5.90;5.40;;;16.80;99.90;;;;;;494078;240;28755;-70
2022/10/18 09:01:40;;;;;;;7.73;6.10;;;16.90;99.90;;;;;;494086;240;29654;-70
2022/10/18 09:03:41;;;;;;;6.37;5.53;;;16.90;99.90;;;;;;494090;240;29274;-70
2022/10/18 09:05:42;;;;;;;8.00;5.80;;;16.90;99.90;;;;;;494102;240;29200;-70
2022/10/18 09:07:44;;;;;;;6.43;5.80;;;16.80;99.90;;;;;;494045;241;28709;-71
2022/10/18 09:09:45;;;;;;;6.97;6.23;;;16.70;99.90;;;;;;494078;240;28800;-70
2022/10/18 09:11:46;;;;;;;9.80;6.33;;;16.60;99.90;;;;;;494103;240;28818;-69
2022/10/18 09:13:47;;;;;;;9.30;6.80;;;16.50;99.90;;;;;;494085;240;28797;-70
2022/10/18 09:15:49;;;;;;;8.70;6.60;;;16.50;99.90;;;;;;494096;240;28736;-71
2022/10/18 09:17:50;;;;;;;7.40;6.53;;;16.50;99.90;;;;;;494050;240;28807;-70
2022/10/18 09:19:54;;;;;;;7.17;6.47;;;16.60;99.90;;;;;;494095;240;28833;-71
2022/10/18 09:21:55;;;;;;;7.23;6.23;;;16.70;99.90;;;;;;494079;240;28742;-71
2022/10/18 09:23:57;;;;;;;7.30;6.20;;;16.60;99.90;;;;;;494087;240;28807;-72
2022/10/18 09:25:58;;;;;;;6.93;5.90;;;16.70;99.90;;;;;;494092;240;28840;-70
2022/10/18 09:27:59;;;;;;;6.30;5.70;;;16.70;99.90;;;;;;492279;240;36137;-70
2022/10/18 09:30:00;;;;;;;6.10;5.60;;;16.70;99.90;;;;;;494098;240;27390;-69
2022/10/18 09:32:03;;;;;;;5.67;5.17;;;16.60;99.90;;;;;;494092;240;28753;-70
2022/10/18 09:34:03;;;;;;;5.87;5.27;;;16.60;99.90;;;;;;494023;240;29320;-72
2022/10/18 09:36:04;;;;;;;5.73;5.23;;;16.60;99.90;;;;;;494064;240;29566;-70
2022/10/18 09:38:05;;;;;;;5.60;5.10;;;16.70;99.90;;;;;;494075;240;29322;-71
2022/10/18 09:40:07;;;;;;;6.00;5.40;;;16.80;99.90;;;;;;494097;240;29196;-70
2022/10/18 09:42:08;;;;;;;5.07;4.60;;;16.90;99.90;;;;;;494078;240;28808;-70
2022/10/18 09:44:09;;;;;;;6.00;4.90;;;16.90;99.90;;;;;;494089;240;28736;-72
2022/10/18 09:46:10;;;;;;;7.53;5.30;;;16.90;99.90;;;;;;494050;240;28732;-70
2022/10/18 09:48:12;;;;;;;5.47;4.90;;;16.90;99.90;;;;;;494082;240;28742;-71
2022/10/18 09:50:13;;;;;;;6.57;4.90;;;16.80;99.90;;;;;;494095;240;28843;-70
2022/10/18 09:52:14;;;;;;;4.97;4.57;;;16.90;99.90;;;;;;494088;240;28737;-70
2022/10/18 09:54:15;;;;;;;5.40;4.90;;;16.80;99.90;;;;;;494092;240;28723;-71
2022/10/18 09:56:17;;;;;;;4.63;4.23;;;16.90;99.90;;;;;;494066;240;28732;-69
2022/10/18 09:58:18;;;;;;;5.27;4.70;;;16.90;99.90;;;;;;494104;240;28812;-70
2022/10/18 10:00:19;;;;;;;4.80;4.40;;;16.90;99.90;;;;;;494119;240;29393;-69
2022/10/18 10:02:24;;;;;;;5.23;4.50;;;17.00;99.90;;;;;;494123;240;29304;-70
2022/10/18 10:04:25;;;;;;;4.90;4.50;;;17.10;99.90;;;;;;494110;240;28825;-71
2022/10/18 10:06:26;;;;;;;4.83;4.43;;;17.20;99.90;;;;;;494073;240;28835;-72
2022/10/18 10:08:27;;;;;;;5.63;4.23;;;17.10;99.90;;;;;;494114;240;29030;-70
2022/10/18 10:10:29;;;;;;;5.20;4.80;;;17.10;99.90;;;;;;494109;240;28724;-70
2022/10/18 10:12:30;;;;;;;5.30;4.37;;;17.10;99.90;;;;;;494104;240;28743;-69
2022/10/18 10:14:31;;;;;;;5.37;4.87;;;17.00;99.90;;;;;;494107;240;28713;-70
2022/10/18 10:16:32;;;;;;;4.83;4.43;;;17.00;99.90;;;;;;494071;240;28855;-71
2022/10/18 10:18:34;;;;;;;6.70;5.63;;;17.10;99.90;;;;;;494104;240;28915;-70
2022/10/18 10:20:35;;;;;;;6.07;5.47;;;17.10;99.90;;;;;;494109;240;29274;-71
2022/10/18 10:22:36;;;;;;;5.60;5.10;;;17.20;99.90;;;;;;494109;240;29298;-70
2022/10/18 10:24:37;;;;;;;9.97;5.00;;;17.20;99.90;;;;;;494111;240;29186;-70
2022/10/18 10:26:39;;;;;;;6.17;5.43;;;17.30;99.90;;;;;;494072;240;28877;-73
2022/10/18 10:28:42;;;;;;;6.50;5.23;;;17.40;99.90;;;;;;494108;240;28726;-70
2022/10/18 10:30:41;;;;;;;6.20;5.20;;;17.40;99.90;;;;;;493998;240;28776;-70